WICT2: Wichita River At Wichita Falls, TX

                                SHEF ID:       WICT2     Wichita Rv at Wichita Falls, TX
STATION TYPE:
Regulating: Stage = 18.50, Flow = 5482

PRECIP STAGE RIV-FLOW WTR-TEMP CONDUCT BAT-LOAD
in ft cfs F umho/cm volt
Ccp-Rev Ccp-Rev Ccp-Rev Ccp-Rev Ccp-Rev Ccp-Rev
(America/Chicago)
04/17 00:00 ---- 4.90 478 72.10 350 12.11
04/17 01:00 ---- 4.84 465 72.18 345 12.08
04/17 02:00 ---- 4.78 453 72.23 346 12.06
04/17 03:00 ---- 4.71 439 72.27 351 12.05
04/17 04:00 ---- 4.61 419 72.28 349 12.04
04/17 05:00 ---- 4.52 401 72.27 338 12.02
04/17 06:00 ---- 4.41 380 72.23 328 12.01
04/17 07:00 ---- 4.29 358 72.16 328 11.99
04/17 08:00 ---- 4.17 334 72.07 326 12.04
04/17 09:00 ---- 4.05 311 72.00 320 12.01
04/17 10:00 ---- 3.94 291 72.01 305 12.41
04/17 11:00 ---- 3.83 271 72.03 300 12.50
04/17 12:00 ---- 3.71 251 72.07 296 12.49
04/17 13:00 ---- 3.62 236 72.19 295 12.52
04/17 14:00 ---- 3.53 220 72.95 804 12.44
04/17 15:00 ---- 3.42 201 73.47 810 12.70
04/17 16:00 ---- 3.34 187 73.65 852 12.50
04/17 17:00 ---- 3.26 174 73.72 870 12.37
04/17 18:00 ---- 3.20 165 73.71 874 12.30
04/17 19:00 ---- 3.14 156 73.74 886 12.27
04/17 20:00 ---- 3.08 147 73.63 895 12.08
04/17 21:00 ---- 3.03 140 73.40 949 12.13
04/17 22:00 ---- 2.98 133 73.17 928 12.11
04/17 23:00 ---- 2.94 128 72.97 955 12.11
Data processed at Sat 18Apr2026 04:58 GMT

NOTICE: If you are parsing this page

Please convert to using our Data API. Starting early 2026 we will be migrating to: https://water.usace.army.mil with modern pages rendered in JavaScript. When this migration completes you will no longer be able to scrape this page! CWMSDataAPI (CDA)

Timeseries IDs (TSIDs)

TSIDs used from left to right in the data table
WFAL.Precip-Inc.Total.1Hour.1Hour.Ccp-Rev
WFAL.Stage.Inst.1Hour.0.Ccp-Rev
WFAL.Flow.Inst.1Hour.0.Ccp-Rev
WFAL.Temp-Water.Inst.1Hour.0.Ccp-Rev
WFAL.Cond-Water.Inst.1Hour.0.Ccp-Rev
WFAL.Volt-Battery Load.Inst.1Hour.0.Ccp-Rev

                            

All information presented herein is the property of the government of the United States of America and may be revised or deleted at any time without prior notice. Dissemination of this information without the expressed written consent of the Public Affairs Office, Tulsa District U.S. Army Corps of Engineers is strictly prohibited. These data are gathered electronically and, as presented, have NOT undergone any form of quality control. These data are NOT guaranteed to be valid or correct.